sensor_id;sensor_type;location;lat;lon;timestamp;temperature;humidity
9939;DHT22;5008;50.656;7.188;2023-09-12T04:01:41;19.70;99.90
9939;DHT22;5008;50.656;7.188;2023-09-12T04:04:08;19.70;99.90
9939;DHT22;5008;50.656;7.188;2023-09-12T04:06:35;19.60;99.90
9939;DHT22;5008;50.656;7.188;2023-09-12T04:09:01;19.60;99.90
9939;DHT22;5008;50.656;7.188;2023-09-12T04:11:28;19.60;99.90
9939;DHT22;5008;50.656;7.188;2023-09-12T04:13:55;19.60;99.90
9939;DHT22;5008;50.656;7.188;2023-09-12T04:16:22;19.60;99.90
9939;DHT22;5008;50.656;7.188;2023-09-12T04:18:51;19.60;99.90
9939;DHT22;5008;50.656;7.188;2023-09-12T04:21:18;19.60;99.90
9939;DHT22;5008;50.656;7.188;2023-09-12T04:23:45;19.70;99.90
9939;DHT22;5008;50.656;7.188;2023-09-12T04:26:13;19.60;99.90
9939;DHT22;5008;50.656;7.188;2023-09-12T04:28:40;19.60;99.90
9939;DHT22;5008;50.656;7.188;2023-09-12T04:31:09;19.60;99.90
9939;DHT22;5008;50.656;7.188;2023-09-12T04:33:36;19.60;99.90
9939;DHT22;5008;50.656;7.188;2023-09-12T04:36:05;19.70;99.90
9939;DHT22;5008;50.656;7.188;2023-09-12T04:38:33;19.70;99.90
9939;DHT22;5008;50.656;7.188;2023-09-12T04:41:04;19.70;99.90
9939;DHT22;5008;50.656;7.188;2023-09-12T04:43:32;19.60;99.90
9939;DHT22;5008;50.656;7.188;2023-09-12T04:46:00;19.60;99.90
9939;DHT22;5008;50.656;7.188;2023-09-12T04:48:29;19.60;99.90
9939;DHT22;5008;50.656;7.188;2023-09-12T04:50:56;19.60;99.90
9939;DHT22;5008;50.656;7.188;2023-09-12T04:53:25;19.60;99.90
9939;DHT22;5008;50.656;7.188;2023-09-12T04:55:52;19.60;99.90
9939;DHT22;5008;50.656;7.188;2023-09-12T04:58:19;19.60;99.90
9939;DHT22;5008;50.656;7.188;2023-09-12T05:00:47;19.70;99.90
9939;DHT22;5008;50.656;7.188;2023-09-12T05:03:14;19.60;99.90
9939;DHT22;5008;50.656;7.188;2023-09-12T05:05:44;19.60;99.90
9939;DHT22;5008;50.656;7.188;2023-09-12T05:08:11;19.70;99.90
9939;DHT22;5008;50.656;7.188;2023-09-12T05:10:40;19.80;99.90
9939;DHT22;5008;50.656;7.188;2023-09-12T05:13:07;19.80;99.90
9939;DHT22;5008;50.656;7.188;2023-09-12T05:15:36;19.80;99.90
9939;DHT22;5008;50.656;7.188;2023-09-12T05:18:05;19.70;99.90
9939;DHT22;5008;50.656;7.188;2023-09-12T05:20:34;19.70;99.90
9939;DHT22;5008;50.656;7.188;2023-09-12T05:23:05;19.70;99.90
9939;DHT22;5008;50.656;7.188;2023-09-12T05:25:35;19.70;99.90
9939;DHT22;5008;50.656;7.188;2023-09-12T05:28:04;19.60;99.90
9939;DHT22;5008;50.656;7.188;2023-09-12T05:30:34;19.60;99.90
9939;DHT22;5008;50.656;7.188;2023-09-12T05:33:02;19.60;99.90
9939;DHT22;5008;50.656;7.188;2023-09-12T05:35:32;19.50;99.90
9939;DHT22;5008;50.656;7.188;2023-09-12T05:38:03;19.50;99.90
9939;DHT22;5008;50.656;7.188;2023-09-12T05:40:35;19.50;99.90
9939;DHT22;5008;50.656;7.188;2023-09-12T05:43:05;19.60;99.90
9939;DHT22;5008;50.656;7.188;2023-09-12T05:45:32;19.60;99.90
9939;DHT22;5008;50.656;7.188;2023-09-12T05:48:00;19.60;99.90
9939;DHT22;5008;50.656;7.188;2023-09-12T05:50:43;19.70;99.90
9939;DHT22;5008;50.656;7.188;2023-09-12T05:53:46;19.70;99.90
9939;DHT22;5008;50.656;7.188;2023-09-12T05:56:14;19.70;99.90
9939;DHT22;5008;50.656;7.188;2023-09-12T05:58:51;19.70;99.90
9939;DHT22;5008;50.656;7.188;2023-09-12T06:01:31;19.70;99.90
9939;DHT22;5008;50.656;7.188;2023-09-12T06:03:59;19.70;99.90
9939;DHT22;5008;50.656;7.188;2023-09-12T06:06:29;19.80;99.90
9939;DHT22;5008;50.656;7.188;2023-09-12T06:09:02;19.80;99.90
9939;DHT22;5008;50.656;7.188;2023-09-12T06:11:35;19.90;99.90
9939;DHT22;5008;50.656;7.188;2023-09-12T06:14:07;19.80;99.90
9939;DHT22;5008;50.656;7.188;2023-09-12T06:16:35;19.90;99.90
9939;DHT22;5008;50.656;7.188;2023-09-12T06:19:03;19.90;99.90
9939;DHT22;5008;50.656;7.188;2023-09-12T06:21:31;19.90;99.90
9939;DHT22;5008;50.656;7.188;2023-09-12T06:24:09;19.90;99.90
9939;DHT22;5008;50.656;7.188;2023-09-12T06:26:37;19.90;99.90
9939;DHT22;5008;50.656;7.188;2023-09-12T06:29:07;20.00;99.90
9939;DHT22;5008;50.656;7.188;2023-09-12T06:31:40;20.10;99.90
9939;DHT22;5008;50.656;7.188;2023-09-12T06:34:08;20.10;99.90
9939;DHT22;5008;50.656;7.188;2023-09-12T06:36:47;20.10;99.90
9939;DHT22;5008;50.656;7.188;2023-09-12T06:39:15;20.10;99.90
9939;DHT22;5008;50.656;7.188;2023-09-12T06:41:45;20.10;99.90
9939;DHT22;5008;50.656;7.188;2023-09-12T06:44:16;20.10;99.90
9939;DHT22;5008;50.656;7.188;2023-09-12T06:46:47;20.10;99.90
9939;DHT22;5008;50.656;7.188;2023-09-12T06:49:17;20.20;99.90
9939;DHT22;5008;50.656;7.188;2023-09-12T06:51:45;20.20;99.90
9939;DHT22;5008;50.656;7.188;2023-09-12T06:54:13;20.20;99.90
9939;DHT22;5008;50.656;7.188;2023-09-12T06:56:41;20.20;99.90
9939;DHT22;5008;50.656;7.188;2023-09-12T06:59:11;20.30;99.90
9939;DHT22;5008;50.656;7.188;2023-09-12T07:01:41;20.30;99.90
9939;DHT22;5008;50.656;7.188;2023-09-12T07:04:09;20.40;99.90
9939;DHT22;5008;50.656;7.188;2023-09-12T07:06:36;20.50;99.90
9939;DHT22;5008;50.656;7.188;2023-09-12T07:09:03;20.40;99.90
9939;DHT22;5008;50.656;7.188;2023-09-12T07:11:30;20.50;99.90
9939;DHT22;5008;50.656;7.188;2023-09-12T07:13:58;20.60;99.90
9939;DHT22;5008;50.656;7.188;2023-09-12T07:16:26;20.60;99.90
9939;DHT22;5008;50.656;7.188;2023-09-12T07:18:54;20.70;99.90
9939;DHT22;5008;50.656;7.188;2023-09-12T07:21:21;20.70;99.90
9939;DHT22;5008;50.656;7.188;2023-09-12T07:23:48;20.80;99.90
9939;DHT22;5008;50.656;7.188;2023-09-12T07:26:15;20.80;99.90
9939;DHT22;5008;50.656;7.188;2023-09-12T07:28:42;20.80;99.90
9939;DHT22;5008;50.656;7.188;2023-09-12T07:31:09;20.80;99.90
9939;DHT22;5008;50.656;7.188;2023-09-12T07:33:36;21.00;99.90
9939;DHT22;5008;50.656;7.188;2023-09-12T07:36:05;21.00;99.90
9939;DHT22;5008;50.656;7.188;2023-09-12T07:38:32;20.90;99.90
9939;DHT22;5008;50.656;7.188;2023-09-12T07:41:00;20.90;99.90
9939;DHT22;5008;50.656;7.188;2023-09-12T07:43:28;20.90;99.90
9939;DHT22;5008;50.656;7.188;2023-09-12T07:45:55;20.90;99.90
9939;DHT22;5008;50.656;7.188;2023-09-12T07:48:22;21.00;99.90
9939;DHT22;5008;50.656;7.188;2023-09-12T07:50:49;21.00;99.90
9939;DHT22;5008;50.656;7.188;2023-09-12T07:53:18;21.10;99.90
9939;DHT22;5008;50.656;7.188;2023-09-12T07:55:45;21.20;99.90
9939;DHT22;5008;50.656;7.188;2023-09-12T07:58:13;21.10;99.90
9939;DHT22;5008;50.656;7.188;2023-09-12T08:00:40;21.20;99.90
9939;DHT22;5008;50.656;7.188;2023-09-12T08:03:07;21.30;99.90
9939;DHT22;5008;50.656;7.188;2023-09-12T08:05:34;21.30;99.90
9939;DHT22;5008;50.656;7.188;2023-09-12T08:08:00;21.30;99.90
9939;DHT22;5008;50.656;7.188;2023-09-12T08:10:29;21.30;99.90
9939;DHT22;5008;50.656;7.188;2023-09-12T08:12:56;21.30;99.90
9939;DHT22;5008;50.656;7.188;2023-09-12T08:15:23;21.40;99.90
9939;DHT22;5008;50.656;7.188;2023-09-12T08:17:50;21.40;99.90
9939;DHT22;5008;50.656;7.188;2023-09-12T08:20:19;21.50;99.90
9939;DHT22;5008;50.656;7.188;2023-09-12T08:22:46;21.50;99.90
9939;DHT22;5008;50.656;7.188;2023-09-12T08:25:14;21.50;99.90
9939;DHT22;5008;50.656;7.188;2023-09-12T08:27:42;21.60;99.90
9939;DHT22;5008;50.656;7.188;2023-09-12T08:30:10;21.60;99.90
9939;DHT22;5008;50.656;7.188;2023-09-12T08:32:38;21.70;99.90
9939;DHT22;5008;50.656;7.188;2023-09-12T08:35:09;21.60;99.90
9939;DHT22;5008;50.656;7.188;2023-09-12T08:37:37;21.70;99.90
9939;DHT22;5008;50.656;7.188;2023-09-12T08:40:06;21.70;99.90
9939;DHT22;5008;50.656;7.188;2023-09-12T08:42:39;21.70;99.90
9939;DHT22;5008;50.656;7.188;2023-09-12T08:45:12;21.70;99.90
9939;DHT22;5008;50.656;7.188;2023-09-12T08:47:41;21.80;99.90
9939;DHT22;5008;50.656;7.188;2023-09-12T08:50:11;21.80;99.90
9939;DHT22;5008;50.656;7.188;2023-09-12T08:52:40;21.80;99.90
9939;DHT22;5008;50.656;7.188;2023-09-12T08:55:08;21.80;99.90
9939;DHT22;5008;50.656;7.188;2023-09-12T08:57:36;21.80;99.90
9939;DHT22;5008;50.656;7.188;2023-09-12T09:00:06;21.80;99.90
9939;DHT22;5008;50.656;7.188;2023-09-12T09:02:37;21.80;99.90
9939;DHT22;5008;50.656;7.188;2023-09-12T09:05:06;21.90;99.90
9939;DHT22;5008;50.656;7.188;2023-09-12T09:07:35;21.90;99.90
9939;DHT22;5008;50.656;7.188;2023-09-12T09:10:04;21.90;99.90
9939;DHT22;5008;50.656;7.188;2023-09-12T09:12:42;21.90;99.90
9939;DHT22;5008;50.656;7.188;2023-09-12T09:15:23;21.90;99.90
9939;DHT22;5008;50.656;7.188;2023-09-12T09:17:52;22.00;99.90
9939;DHT22;5008;50.656;7.188;2023-09-12T09:20:25;22.20;99.90
9939;DHT22;5008;50.656;7.188;2023-09-12T09:22:57;22.20;99.90
9939;DHT22;5008;50.656;7.188;2023-09-12T09:25:24;22.10;99.90
9939;DHT22;5008;50.656;7.188;2023-09-12T09:27:51;22.20;99.90
9939;DHT22;5008;50.656;7.188;2023-09-12T09:30:20;22.20;99.90
9939;DHT22;5008;50.656;7.188;2023-09-12T09:33:05;22.30;99.90
9939;DHT22;5008;50.656;7.188;2023-09-12T09:35:32;22.30;99.90
9939;DHT22;5008;50.656;7.188;2023-09-12T09:37:59;22.40;99.90
9939;DHT22;5008;50.656;7.188;2023-09-12T09:40:26;22.40;99.90
9939;DHT22;5008;50.656;7.188;2023-09-12T09:42:53;22.40;99.90
9939;DHT22;5008;50.656;7.188;2023-09-12T09:45:20;22.40;99.90
9939;DHT22;5008;50.656;7.188;2023-09-12T09:47:49;22.50;99.90
9939;DHT22;5008;50.656;7.188;2023-09-12T09:50:18;22.50;99.90
9939;DHT22;5008;50.656;7.188;2023-09-12T09:52:44;22.60;99.90
9939;DHT22;5008;50.656;7.188;2023-09-12T09:55:13;22.60;99.90
9939;DHT22;5008;50.656;7.188;2023-09-12T09:57:40;22.70;99.90
9939;DHT22;5008;50.656;7.188;2023-09-12T10:00:08;22.70;99.90
9939;DHT22;5008;50.656;7.188;2023-09-12T10:02:40;22.80;99.90
9939;DHT22;5008;50.656;7.188;2023-09-12T10:05:09;22.80;99.90
9939;DHT22;5008;50.656;7.188;2023-09-12T10:07:39;22.90;99.90
9939;DHT22;5008;50.656;7.188;2023-09-12T10:10:07;22.90;99.90
9939;DHT22;5008;50.656;7.188;2023-09-12T10:12:35;22.90;99.90
9939;DHT22;5008;50.656;7.188;2023-09-12T10:15:04;23.00;99.90
9939;DHT22;5008;50.656;7.188;2023-09-12T10:17:36;23.10;99.90
9939;DHT22;5008;50.656;7.188;2023-09-12T10:20:04;23.00;99.90
9939;DHT22;5008;50.656;7.188;2023-09-12T10:22:42;23.20;99.90
9939;DHT22;5008;50.656;7.188;2023-09-12T10:25:11;23.20;99.90
9939;DHT22;5008;50.656;7.188;2023-09-12T10:27:39;23.20;99.90
9939;DHT22;5008;50.656;7.188;2023-09-12T10:30:07;23.20;99.90
9939;DHT22;5008;50.656;7.188;2023-09-12T10:32:35;23.30;99.90
9939;DHT22;5008;50.656;7.188;2023-09-12T10:35:03;23.30;99.90
9939;DHT22;5008;50.656;7.188;2023-09-12T10:37:32;23.40;99.90
9939;DHT22;5008;50.656;7.188;2023-09-12T10:40:05;23.40;99.90
9939;DHT22;5008;50.656;7.188;2023-09-12T10:42:35;23.40;99.90
9939;DHT22;5008;50.656;7.188;2023-09-12T10:45:03;23.40;99.90
9939;DHT22;5008;50.656;7.188;2023-09-12T10:47:34;23.50;99.90
9939;DHT22;5008;50.656;7.188;2023-09-12T10:50:02;23.60;99.90
9939;DHT22;5008;50.656;7.188;2023-09-12T10:52:29;23.70;99.90
9939;DHT22;5008;50.656;7.188;2023-09-12T10:54:56;23.70;99.90
9939;DHT22;5008;50.656;7.188;2023-09-12T10:57:24;23.70;99.90
9939;DHT22;5008;50.656;7.188;2023-09-12T11:00:18;23.70;99.90
9939;DHT22;5008;50.656;7.188;2023-09-12T11:02:45;23.80;99.90
9939;DHT22;5008;50.656;7.188;2023-09-12T11:05:37;23.80;99.90
9939;DHT22;5008;50.656;7.188;2023-09-12T11:08:04;24.00;99.90
9939;DHT22;5008;50.656;7.188;2023-09-12T11:10:31;24.00;99.90
9939;DHT22;5008;50.656;7.188;2023-09-12T11:13:00;24.00;99.90
9939;DHT22;5008;50.656;7.188;2023-09-12T11:15:28;24.10;99.90
9939;DHT22;5008;50.656;7.188;2023-09-12T11:18:01;24.10;99.90
9939;DHT22;5008;50.656;7.188;2023-09-12T11:20:55;24.20;99.90
9939;DHT22;5008;50.656;7.188;2023-09-12T11:23:25;24.20;99.90
9939;DHT22;5008;50.656;7.188;2023-09-12T11:26:03;24.30;99.90
9939;DHT22;5008;50.656;7.188;2023-09-12T11:28:33;24.20;99.90
9939;DHT22;5008;50.656;7.188;2023-09-12T11:31:00;24.30;99.90
9939;DHT22;5008;50.656;7.188;2023-09-12T11:33:27;24.30;99.90
9939;DHT22;5008;50.656;7.188;2023-09-12T11:35:54;24.30;99.90
9939;DHT22;5008;50.656;7.188;2023-09-12T11:38:27;24.30;99.90
9939;DHT22;5008;50.656;7.188;2023-09-12T11:40:55;24.40;99.90
9939;DHT22;5008;50.656;7.188;2023-09-12T11:43:23;24.40;99.90
9939;DHT22;5008;50.656;7.188;2023-09-12T11:45:52;24.40;99.90
9939;DHT22;5008;50.656;7.188;2023-09-12T11:48:20;24.50;99.90
9939;DHT22;5008;50.656;7.188;2023-09-12T11:50:52;24.60;99.90
9939;DHT22;5008;50.656;7.188;2023-09-12T11:53:20;24.60;99.90
9939;DHT22;5008;50.656;7.188;2023-09-12T11:55:50;24.50;99.90
9939;DHT22;5008;50.656;7.188;2023-09-12T11:58:18;24.60;99.90
9939;DHT22;5008;50.656;7.188;2023-09-12T12:00:46;24.60;99.90
9939;DHT22;5008;50.656;7.188;2023-09-12T12:03:15;24.60;99.90
9939;DHT22;5008;50.656;7.188;2023-09-12T12:05:42;24.70;99.90
9939;DHT22;5008;50.656;7.188;2023-09-12T12:08:09;24.70;99.90
9939;DHT22;5008;50.656;7.188;2023-09-12T12:10:37;24.70;99.90
9939;DHT22;5008;50.656;7.188;2023-09-12T12:13:05;24.70;99.90
9939;DHT22;5008;50.656;7.188;2023-09-12T12:15:32;24.70;99.90
9939;DHT22;5008;50.656;7.188;2023-09-12T12:17:59;24.80;99.90
9939;DHT22;5008;50.656;7.188;2023-09-12T12:20:27;24.90;99.90
9939;DHT22;5008;50.656;7.188;2023-09-12T12:22:55;25.00;99.90
9939;DHT22;5008;50.656;7.188;2023-09-12T12:25:22;24.90;99.90
9939;DHT22;5008;50.656;7.188;2023-09-12T12:27:49;24.80;99.90
9939;DHT22;5008;50.656;7.188;2023-09-12T12:30:18;24.80;99.90
9939;DHT22;5008;50.656;7.188;2023-09-12T12:32:46;24.80;99.90
9939;DHT22;5008;50.656;7.188;2023-09-12T12:35:17;24.80;99.90
9939;DHT22;5008;50.656;7.188;2023-09-12T12:37:48;24.90;99.90
9939;DHT22;5008;50.656;7.188;2023-09-12T12:40:16;24.80;99.90
9939;DHT22;5008;50.656;7.188;2023-09-12T12:42:43;24.70;99.90
9939;DHT22;5008;50.656;7.188;2023-09-12T12:45:12;24.80;99.90
9939;DHT22;5008;50.656;7.188;2023-09-12T12:47:39;24.70;99.90
9939;DHT22;5008;50.656;7.188;2023-09-12T12:50:07;24.80;99.90
9939;DHT22;5008;50.656;7.188;2023-09-12T12:52:34;24.80;99.90
9939;DHT22;5008;50.656;7.188;2023-09-12T12:55:09;24.90;99.90
9939;DHT22;5008;50.656;7.188;2023-09-12T13:00:23;24.90;99.90
9939;DHT22;5008;50.656;7.188;2023-09-12T13:02:49;24.90;99.90
9939;DHT22;5008;50.656;7.188;2023-09-12T13:05:21;25.00;99.90
9939;DHT22;5008;50.656;7.188;2023-09-12T13:07:49;25.10;99.90
9939;DHT22;5008;50.656;7.188;2023-09-12T13:10:18;25.10;99.90
9939;DHT22;5008;50.656;7.188;2023-09-12T13:12:45;25.10;99.90
9939;DHT22;5008;50.656;7.188;2023-09-12T13:15:12;25.10;99.90
9939;DHT22;5008;50.656;7.188;2023-09-12T13:17:40;25.20;99.90
9939;DHT22;5008;50.656;7.188;2023-09-12T13:20:07;25.40;99.90
9939;DHT22;5008;50.656;7.188;2023-09-12T13:22:35;25.40;99.90
9939;DHT22;5008;50.656;7.188;2023-09-12T13:25:02;25.50;99.90
9939;DHT22;5008;50.656;7.188;2023-09-12T13:27:31;25.50;99.90
9939;DHT22;5008;50.656;7.188;2023-09-12T13:29:58;25.50;99.90
9939;DHT22;5008;50.656;7.188;2023-09-12T13:32:25;25.60;99.90
9939;DHT22;5008;50.656;7.188;2023-09-12T13:34:53;25.50;99.90
9939;DHT22;5008;50.656;7.188;2023-09-12T13:37:20;25.60;99.90
9939;DHT22;5008;50.656;7.188;2023-09-12T13:39:47;25.50;99.90
9939;DHT22;5008;50.656;7.188;2023-09-12T13:42:15;25.50;99.90
9939;DHT22;5008;50.656;7.188;2023-09-12T13:44:46;25.50;99.90
9939;DHT22;5008;50.656;7.188;2023-09-12T13:47:13;25.50;99.90
9939;DHT22;5008;50.656;7.188;2023-09-12T13:49:46;25.60;99.90
9939;DHT22;5008;50.656;7.188;2023-09-12T13:52:13;25.80;99.90
9939;DHT22;5008;50.656;7.188;2023-09-12T13:54:40;26.10;99.90
9939;DHT22;5008;50.656;7.188;2023-09-12T13:57:07;26.00;99.90
9939;DHT22;5008;50.656;7.188;2023-09-12T13:59:34;25.80;99.90
9939;DHT22;5008;50.656;7.188;2023-09-12T14:02:03;25.80;99.90
9939;DHT22;5008;50.656;7.188;2023-09-12T14:04:30;25.90;99.90
9939;DHT22;5008;50.656;7.188;2023-09-12T14:06:56;25.80;99.90
9939;DHT22;5008;50.656;7.188;2023-09-12T14:09:23;25.80;99.90
9939;DHT22;5008;50.656;7.188;2023-09-12T14:11:50;25.80;99.90
9939;DHT22;5008;50.656;7.188;2023-09-12T14:14:17;26.00;99.90
9939;DHT22;5008;50.656;7.188;2023-09-12T14:16:44;26.00;99.90
9939;DHT22;5008;50.656;7.188;2023-09-12T14:19:12;25.90;99.90
9939;DHT22;5008;50.656;7.188;2023-09-12T14:21:39;25.80;99.90
9939;DHT22;5008;50.656;7.188;2023-09-12T14:24:07;25.80;99.90
9939;DHT22;5008;50.656;7.188;2023-09-12T14:26:33;25.60;99.90
9939;DHT22;5008;50.656;7.188;2023-09-12T14:29:00;25.70;99.90
9939;DHT22;5008;50.656;7.188;2023-09-12T14:31:27;25.80;99.90
9939;DHT22;5008;50.656;7.188;2023-09-12T14:33:54;25.80;99.90
9939;DHT22;5008;50.656;7.188;2023-09-12T14:36:23;25.70;99.90
9939;DHT22;5008;50.656;7.188;2023-09-12T14:38:50;25.60;99.90
9939;DHT22;5008;50.656;7.188;2023-09-12T14:41:17;25.50;99.90
9939;DHT22;5008;50.656;7.188;2023-09-12T14:43:43;25.30;99.90
9939;DHT22;5008;50.656;7.188;2023-09-12T14:46:10;25.20;99.90
9939;DHT22;5008;50.656;7.188;2023-09-12T14:48:37;25.20;99.90
9939;DHT22;5008;50.656;7.188;2023-09-12T14:51:04;25.10;99.90
9939;DHT22;5008;50.656;7.188;2023-09-12T14:53:32;25.00;99.90
9939;DHT22;5008;50.656;7.188;2023-09-12T14:55:59;25.00;99.90
9939;DHT22;5008;50.656;7.188;2023-09-12T14:58:26;25.10;99.90
9939;DHT22;5008;50.656;7.188;2023-09-12T15:00:54;25.10;99.90
9939;DHT22;5008;50.656;7.188;2023-09-12T15:03:20;25.00;99.90
9939;DHT22;5008;50.656;7.188;2023-09-12T15:05:47;25.00;99.90
9939;DHT22;5008;50.656;7.188;2023-09-12T15:08:14;24.90;99.90
9939;DHT22;5008;50.656;7.188;2023-09-12T15:10:42;24.80;99.90
9939;DHT22;5008;50.656;7.188;2023-09-12T15:13:09;24.70;99.90
9939;DHT22;5008;50.656;7.188;2023-09-12T15:15:37;24.70;99.90
9939;DHT22;5008;50.656;7.188;2023-09-12T15:18:04;24.70;99.90
9939;DHT22;5008;50.656;7.188;2023-09-12T15:20:32;24.60;99.90
9939;DHT22;5008;50.656;7.188;2023-09-12T15:22:59;24.60;99.90
9939;DHT22;5008;50.656;7.188;2023-09-12T15:25:25;24.60;99.90
9939;DHT22;5008;50.656;7.188;2023-09-12T15:27:54;24.50;99.90
9939;DHT22;5008;50.656;7.188;2023-09-12T15:30:20;24.50;99.90
9939;DHT22;5008;50.656;7.188;2023-09-12T15:32:47;24.40;99.90
9939;DHT22;5008;50.656;7.188;2023-09-12T15:35:14;24.30;99.90
9939;DHT22;5008;50.656;7.188;2023-09-12T15:37:41;24.30;99.90
9939;DHT22;5008;50.656;7.188;2023-09-12T15:40:09;24.20;99.90
9939;DHT22;5008;50.656;7.188;2023-09-12T15:42:36;24.10;99.90
9939;DHT22;5008;50.656;7.188;2023-09-12T15:45:05;24.10;99.90
9939;DHT22;5008;50.656;7.188;2023-09-12T15:47:34;24.00;99.90
9939;DHT22;5008;50.656;7.188;2023-09-12T15:50:00;24.00;99.90
9939;DHT22;5008;50.656;7.188;2023-09-12T15:52:28;24.00;99.90
9939;DHT22;5008;50.656;7.188;2023-09-12T15:54:55;23.90;99.90
9939;DHT22;5008;50.656;7.188;2023-09-12T15:57:21;23.90;99.90
9939;DHT22;5008;50.656;7.188;2023-09-12T15:59:48;23.80;99.90
9939;DHT22;5008;50.656;7.188;2023-09-12T16:02:17;23.80;99.90
9939;DHT22;5008;50.656;7.188;2023-09-12T16:04:44;23.80;99.90
9939;DHT22;5008;50.656;7.188;2023-09-12T16:07:11;23.70;99.90
9939;DHT22;5008;50.656;7.188;2023-09-12T16:09:38;23.70;99.90
9939;DHT22;5008;50.656;7.188;2023-09-12T16:12:05;23.80;99.90
9939;DHT22;5008;50.656;7.188;2023-09-12T16:14:32;23.70;99.90
9939;DHT22;5008;50.656;7.188;2023-09-12T16:16:59;23.60;99.90
9939;DHT22;5008;50.656;7.188;2023-09-12T16:19:28;23.50;99.90
9939;DHT22;5008;50.656;7.188;2023-09-12T16:21:55;23.60;99.90
9939;DHT22;5008;50.656;7.188;2023-09-12T16:24:22;23.50;99.90
9939;DHT22;5008;50.656;7.188;2023-09-12T16:26:49;23.40;99.90
9939;DHT22;5008;50.656;7.188;2023-09-12T16:29:16;23.40;99.90
9939;DHT22;5008;50.656;7.188;2023-09-12T16:31:43;23.40;99.90
9939;DHT22;5008;50.656;7.188;2023-09-12T16:34:10;23.40;99.90
9939;DHT22;5008;50.656;7.188;2023-09-12T16:36:38;23.40;99.90
9939;DHT22;5008;50.656;7.188;2023-09-12T16:39:05;23.30;99.90
9939;DHT22;5008;50.656;7.188;2023-09-12T16:41:33;23.30;99.90
9939;DHT22;5008;50.656;7.188;2023-09-12T16:44:00;23.30;99.90
9939;DHT22;5008;50.656;7.188;2023-09-12T16:46:28;23.20;99.90
9939;DHT22;5008;50.656;7.188;2023-09-12T16:48:55;23.20;99.90
9939;DHT22;5008;50.656;7.188;2023-09-12T16:51:22;23.20;99.90
9939;DHT22;5008;50.656;7.188;2023-09-12T16:53:52;23.10;99.90
9939;DHT22;5008;50.656;7.188;2023-09-12T16:56:21;23.10;99.90
9939;DHT22;5008;50.656;7.188;2023-09-12T16:58:48;22.90;99.90
9939;DHT22;5008;50.656;7.188;2023-09-12T17:01:16;22.80;99.90
9939;DHT22;5008;50.656;7.188;2023-09-12T17:03:45;22.60;99.90
9939;DHT22;5008;50.656;7.188;2023-09-12T17:06:12;22.60;99.90
9939;DHT22;5008;50.656;7.188;2023-09-12T17:08:39;22.50;99.90
9939;DHT22;5008;50.656;7.188;2023-09-12T17:11:08;22.30;99.90
9939;DHT22;5008;50.656;7.188;2023-09-12T17:13:37;22.20;99.90
9939;DHT22;5008;50.656;7.188;2023-09-12T17:16:05;22.20;99.90
9939;DHT22;5008;50.656;7.188;2023-09-12T17:18:32;22.00;99.90
9939;DHT22;5008;50.656;7.188;2023-09-12T17:21:00;22.00;99.90
9939;DHT22;5008;50.656;7.188;2023-09-12T17:23:28;22.00;99.90
9939;DHT22;5008;50.656;7.188;2023-09-12T17:25:55;22.10;99.90
9939;DHT22;5008;50.656;7.188;2023-09-12T17:28:23;22.00;99.90
9939;DHT22;5008;50.656;7.188;2023-09-12T17:30:50;22.00;99.90
9939;DHT22;5008;50.656;7.188;2023-09-12T17:33:18;21.90;99.90
9939;DHT22;5008;50.656;7.188;2023-09-12T17:35:45;21.80;99.90
9939;DHT22;5008;50.656;7.188;2023-09-12T17:38:12;21.80;99.90
9939;DHT22;5008;50.656;7.188;2023-09-12T17:40:39;21.70;99.90
9939;DHT22;5008;50.656;7.188;2023-09-12T17:43:06;21.80;99.90
9939;DHT22;5008;50.656;7.188;2023-09-12T17:45:39;21.90;99.90
9939;DHT22;5008;50.656;7.188;2023-09-12T17:48:10;21.90;99.90
9939;DHT22;5008;50.656;7.188;2023-09-12T17:50:52;21.90;99.90
9939;DHT22;5008;50.656;7.188;2023-09-12T17:53:23;21.80;99.90
9939;DHT22;5008;50.656;7.188;2023-09-12T17:56:00;21.80;99.90
9939;DHT22;5008;50.656;7.188;2023-09-12T17:58:32;21.70;99.90
9939;DHT22;5008;50.656;7.188;2023-09-12T18:01:03;21.60;99.90
9939;DHT22;5008;50.656;7.188;2023-09-12T18:03:30;21.60;99.90
9939;DHT22;5008;50.656;7.188;2023-09-12T18:05:58;21.60;99.90
9939;DHT22;5008;50.656;7.188;2023-09-12T18:08:25;21.50;99.90
9939;DHT22;5008;50.656;7.188;2023-09-12T18:10:52;21.50;99.90
9939;DHT22;5008;50.656;7.188;2023-09-12T18:13:19;21.50;99.90
9939;DHT22;5008;50.656;7.188;2023-09-12T18:15:46;21.40;99.90
9939;DHT22;5008;50.656;7.188;2023-09-12T18:18:14;21.30;99.90
9939;DHT22;5008;50.656;7.188;2023-09-12T18:20:40;21.40;99.90
9939;DHT22;5008;50.656;7.188;2023-09-12T18:23:07;21.50;99.90
9939;DHT22;5008;50.656;7.188;2023-09-12T18:25:34;21.50;99.90
9939;DHT22;5008;50.656;7.188;2023-09-12T18:28:01;21.40;99.90
9939;DHT22;5008;50.656;7.188;2023-09-12T18:30:28;21.30;99.90
9939;DHT22;5008;50.656;7.188;2023-09-12T18:32:55;21.10;99.90
9939;DHT22;5008;50.656;7.188;2023-09-12T18:35:24;21.00;99.90
9939;DHT22;5008;50.656;7.188;2023-09-12T18:37:51;21.00;99.90
9939;DHT22;5008;50.656;7.188;2023-09-12T18:40:19;20.90;99.90
9939;DHT22;5008;50.656;7.188;2023-09-12T18:42:47;20.70;99.90
9939;DHT22;5008;50.656;7.188;2023-09-12T18:45:14;20.60;99.90
9939;DHT22;5008;50.656;7.188;2023-09-12T18:47:41;20.40;99.90
9939;DHT22;5008;50.656;7.188;2023-09-12T18:50:09;20.30;99.90
9939;DHT22;5008;50.656;7.188;2023-09-12T18:52:37;20.20;99.90
9939;DHT22;5008;50.656;7.188;2023-09-12T18:55:05;20.20;99.90
9939;DHT22;5008;50.656;7.188;2023-09-12T18:57:32;20.20;99.90
9939;DHT22;5008;50.656;7.188;2023-09-12T18:59:59;20.20;99.90
9939;DHT22;5008;50.656;7.188;2023-09-12T19:02:27;20.20;99.90
9939;DHT22;5008;50.656;7.188;2023-09-12T19:04:54;20.20;99.90
9939;DHT22;5008;50.656;7.188;2023-09-12T19:07:21;20.20;99.90
9939;DHT22;5008;50.656;7.188;2023-09-12T19:09:49;20.20;99.90
9939;DHT22;5008;50.656;7.188;2023-09-12T19:12:16;20.20;99.90
9939;DHT22;5008;50.656;7.188;2023-09-12T19:14:43;20.10;99.90
9939;DHT22;5008;50.656;7.188;2023-09-12T19:17:10;20.10;99.90
9939;DHT22;5008;50.656;7.188;2023-09-12T19:19:37;20.10;99.90
9939;DHT22;5008;50.656;7.188;2023-09-12T19:22:04;20.10;99.90
9939;DHT22;5008;50.656;7.188;2023-09-12T19:24:31;20.10;99.90
9939;DHT22;5008;50.656;7.188;2023-09-12T19:26:59;20.10;99.90
9939;DHT22;5008;50.656;7.188;2023-09-12T19:29:26;20.10;99.90
9939;DHT22;5008;50.656;7.188;2023-09-12T19:31:53;20.10;99.90
9939;DHT22;5008;50.656;7.188;2023-09-12T19:34:19;20.10;99.90
9939;DHT22;5008;50.656;7.188;2023-09-12T19:36:46;19.90;99.90
9939;DHT22;5008;50.656;7.188;2023-09-12T19:39:13;19.70;99.90
9939;DHT22;5008;50.656;7.188;2023-09-12T19:41:40;19.60;99.90
9939;DHT22;5008;50.656;7.188;2023-09-12T19:44:08;19.50;99.90
9939;DHT22;5008;50.656;7.188;2023-09-12T19:46:35;19.30;99.90
9939;DHT22;5008;50.656;7.188;2023-09-12T19:49:06;19.30;99.90
9939;DHT22;5008;50.656;7.188;2023-09-12T19:51:33;19.20;99.90
9939;DHT22;5008;50.656;7.188;2023-09-12T19:54:00;19.10;99.90
9939;DHT22;5008;50.656;7.188;2023-09-12T19:56:27;19.10;99.90
9939;DHT22;5008;50.656;7.188;2023-09-12T19:58:54;19.10;99.90
9939;DHT22;5008;50.656;7.188;2023-09-12T20:01:22;19.10;99.90
9939;DHT22;5008;50.656;7.188;2023-09-12T20:03:49;19.10;99.90
9939;DHT22;5008;50.656;7.188;2023-09-12T20:06:17;19.20;99.90
9939;DHT22;5008;50.656;7.188;2023-09-12T20:08:44;19.30;99.90
9939;DHT22;5008;50.656;7.188;2023-09-12T20:11:11;19.20;99.90
9939;DHT22;5008;50.656;7.188;2023-09-12T20:13:38;19.20;99.90